Time;durP1;ratioP1;P1;durP2;ratioP2;P2;SDS_P1;SDS_P2;PMS_P1;PMS_P2;Temp;Humidity;BMP_temperature;BMP_pressure;BME280_temperature;BME280_humidity;BME280_pressure;Samples;Min_cycle;Max_cycle;Signal;HPM_P1;HPM_P2
2022/11/12 00:03:48;;;;;;;23.20;20.23;;;5.90;99.90;;;;;;4886469;28;89781;-31
2022/11/12 00:06:13;;;;;;;25.13;19.85;;;5.80;99.90;;;;;;4901524;28;89639;-31
2022/11/12 00:08:39;;;;;;;23.85;20.73;;;5.80;99.90;;;;;;4901401;28;89961;-30
2022/11/12 00:11:04;;;;;;;22.95;20.58;;;5.90;99.90;;;;;;4900340;28;90592;-30
2022/11/12 00:13:30;;;;;;;21.40;18.85;;;5.80;99.90;;;;;;4901099;28;89381;-32
2022/11/12 00:15:56;;;;;;;29.60;21.52;;;5.90;99.90;;;;;;4901387;28;89605;-32
2022/11/12 00:18:21;;;;;;;23.00;20.63;;;5.90;99.90;;;;;;4901624;28;88423;-31
2022/11/12 00:20:47;;;;;;;25.63;21.52;;;5.90;99.90;;;;;;4900582;28;92081;-31
2022/11/12 00:23:12;;;;;;;28.55;22.88;;;5.90;99.90;;;;;;4901099;28;90380;-32
2022/11/12 00:25:38;;;;;;;27.90;21.63;;;5.90;99.90;;;;;;4900533;28;91167;-32
2022/11/12 00:28:06;;;;;;;29.08;21.55;;;5.90;99.90;;;;;;4901125;28;89279;-32
2022/11/12 00:30:32;;;;;;;27.48;23.58;;;5.90;99.90;;;;;;4900858;28;90142;-33
2022/11/12 00:33:02;;;;;;;25.25;22.73;;;5.90;99.90;;;;;;4901237;28;90728;-30
2022/11/12 00:35:30;;;;;;;25.30;22.52;;;5.90;99.90;;;;;;4900992;28;90532;-31
2022/11/12 00:37:56;;;;;;;27.40;22.00;;;6.00;99.90;;;;;;4901112;28;90048;-30
2022/11/12 00:40:22;;;;;;;35.15;23.92;;;6.00;99.90;;;;;;4900301;28;90252;-33
2022/11/12 00:42:51;;;;;;;24.38;21.23;;;6.00;99.90;;;;;;4901001;28;90474;-31
2022/11/12 00:45:17;;;;;;;26.75;22.35;;;6.00;99.90;;;;;;4900954;28;91569;-32
2022/11/12 00:47:43;;;;;;;29.67;21.40;;;6.00;99.90;;;;;;4900432;28;89050;-31
2022/11/12 00:50:09;;;;;;;24.33;20.98;;;6.10;99.90;;;;;;4900793;28;90290;-30
2022/11/12 00:52:34;;;;;;;27.50;20.88;;;6.10;99.90;;;;;;4900223;28;89639;-32
2022/11/12 00:55:00;;;;;;;23.80;20.80;;;6.10;99.90;;;;;;4901425;28;89002;-31
2022/11/12 00:57:26;;;;;;;23.17;20.25;;;6.10;99.90;;;;;;4900130;28;90333;-31
2022/11/12 00:59:51;;;;;;;24.42;19.70;;;6.10;99.90;;;;;;4899814;28;90421;-31
2022/11/12 01:02:18;;;;;;;24.63;20.35;;;6.10;99.90;;;;;;4900788;28;90307;-32
2022/11/12 01:04:44;;;;;;;22.83;20.15;;;6.10;99.90;;;;;;4900085;28;91107;-31
2022/11/12 01:07:10;;;;;;;22.15;19.75;;;6.10;99.90;;;;;;4900793;28;88002;-31
2022/11/12 01:09:35;;;;;;;23.80;20.83;;;6.10;99.90;;;;;;4900801;28;90001;-30
2022/11/12 01:12:01;;;;;;;23.35;19.33;;;6.20;99.90;;;;;;4900367;28;89530;-30
2022/11/12 01:14:26;;;;;;;23.70;21.23;;;6.10;99.90;;;;;;4900601;28;89173;-33
2022/11/12 01:16:52;;;;;;;22.88;19.20;;;6.20;99.90;;;;;;4900304;28;88213;-30
2022/11/12 01:19:17;;;;;;;24.55;19.48;;;6.20;99.90;;;;;;4900656;28;89447;-32
2022/11/12 01:21:43;;;;;;;23.92;19.73;;;6.20;99.90;;;;;;4900555;28;91965;-32
2022/11/12 01:24:10;;;;;;;25.33;19.42;;;6.20;99.90;;;;;;4904026;28;90384;-32
2022/11/12 01:26:36;;;;;;;20.63;18.50;;;6.10;99.90;;;;;;4904188;28;89355;-33
2022/11/12 01:29:03;;;;;;;25.20;18.92;;;6.20;99.90;;;;;;4903177;28;90645;-31
2022/11/12 01:31:38;;;;;;;28.80;19.98;;;6.20;99.90;;;;;;4903613;28;89917;-32
2022/11/12 01:34:06;;;;;;;24.25;19.05;;;6.20;99.90;;;;;;4904248;28;90128;-31
2022/11/12 01:36:33;;;;;;;;;;;6.20;99.90;;;;;;4904258;28;89586;-30
2022/11/12 01:38:59;;;;;;;24.50;18.35;;;6.20;99.90;;;;;;4905788;28;90379;-32
2022/11/12 01:41:28;;;;;;;19.58;17.15;;;6.20;99.90;;;;;;4903091;28;90706;-32
2022/11/12 01:44:12;;;;;;;22.27;16.08;;;6.20;99.90;;;;;;4904004;28;89464;-32
2022/11/12 01:46:51;;;;;;;22.42;17.85;;;6.30;99.90;;;;;;4902710;28;90276;-33
2022/11/12 01:49:23;;;;;;;18.88;16.95;;;6.30;99.90;;;;;;4902045;28;91243;-32
2022/11/12 01:51:53;;;;;;;22.58;18.77;;;6.40;99.90;;;;;;4902699;28;90653;-30
2022/11/12 01:54:20;;;;;;;20.80;17.40;;;6.40;99.90;;;;;;4903321;28;89882;-30
2022/11/12 01:56:48;;;;;;;19.45;17.48;;;6.30;99.90;;;;;;4902773;28;88979;-32
2022/11/12 01:59:25;;;;;;;23.08;17.13;;;6.30;99.90;;;;;;4902953;28;89290;-29
2022/11/12 02:01:50;;;;;;;18.45;14.90;;;6.20;99.90;;;;;;4903675;28;89842;-32
2022/11/12 02:04:16;;;;;;;21.35;16.17;;;6.20;99.90;;;;;;4902526;28;91084;-31
2022/11/12 02:06:43;;;;;;;18.38;15.27;;;6.10;99.90;;;;;;4902703;28;90032;-32
2022/11/12 02:09:09;;;;;;;18.73;16.83;;;6.10;99.90;;;;;;4903705;28;90462;-32
2022/11/12 02:11:35;;;;;;;19.65;15.48;;;6.00;99.90;;;;;;4901886;28;91061;-31
2022/11/12 02:14:01;;;;;;;27.40;17.70;;;5.90;99.90;;;;;;4903385;28;90808;-33
2022/11/12 02:16:46;;;;;;;17.30;15.43;;;5.90;99.90;;;;;;4903341;28;88056;-31
2022/11/12 02:19:14;;;;;;;18.58;15.25;;;5.80;99.90;;;;;;4903122;28;90888;-32
2022/11/12 02:21:40;;;;;;;19.23;16.30;;;5.80;99.90;;;;;;4902489;28;90108;-33
2022/11/12 02:24:12;;;;;;;18.00;14.63;;;5.80;99.90;;;;;;4903295;28;88977;-30
2022/11/12 02:26:40;;;;;;;23.67;16.70;;;5.80;99.90;;;;;;4902682;28;89506;-33
2022/11/12 02:29:06;;;;;;;16.98;14.82;;;5.80;99.90;;;;;;4902797;28;90297;-30
2022/11/12 02:31:32;;;;;;;20.20;16.08;;;5.80;99.90;;;;;;4902763;28;89749;-30
2022/11/12 02:33:57;;;;;;;21.27;15.18;;;5.70;99.90;;;;;;4901284;28;89573;-30
2022/11/12 02:36:23;;;;;;;24.13;16.55;;;5.70;99.90;;;;;;4902915;28;90580;-31
2022/11/12 02:38:49;;;;;;;18.15;15.85;;;5.70;99.90;;;;;;4901822;28;90612;-32
2022/11/12 02:41:15;;;;;;;20.92;15.20;;;5.70;99.90;;;;;;4902895;28;89303;-31
2022/11/12 02:43:40;;;;;;;17.38;14.70;;;5.70;99.90;;;;;;4901924;28;89775;-32
2022/11/12 02:46:06;;;;;;;20.58;15.30;;;5.70;99.90;;;;;;4903090;28;90079;-31
2022/11/12 02:48:32;;;;;;;17.02;14.23;;;5.70;99.90;;;;;;4902618;28;90174;-31
2022/11/12 02:50:58;;;;;;;19.80;13.70;;;5.70;99.90;;;;;;4901944;28;88540;-32
2022/11/12 02:53:23;;;;;;;18.35;16.17;;;5.70;99.90;;;;;;4903058;28;89795;-35
2022/11/12 02:55:49;;;;;;;15.98;14.15;;;5.60;99.90;;;;;;4902438;28;89361;-30
2022/11/12 02:58:15;;;;;;;15.05;13.45;;;5.60;99.90;;;;;;4902890;28;89834;-31
2022/11/12 03:00:40;;;;;;;16.20;13.75;;;5.60;99.90;;;;;;4901793;28;90789;-30
2022/11/12 03:03:06;;;;;;;17.92;14.38;;;5.50;99.90;;;;;;4901393;28;91510;-33
2022/11/12 03:05:33;;;;;;;16.63;14.88;;;5.50;99.90;;;;;;4902178;28;89430;-31
2022/11/12 03:08:05;;;;;;;16.17;14.30;;;5.40;99.90;;;;;;4901962;28;90484;-31
2022/11/12 03:10:31;;;;;;;19.02;13.85;;;5.40;99.90;;;;;;4902127;28;90742;-32
2022/11/12 03:12:59;;;;;;;16.58;12.80;;;5.30;99.90;;;;;;4901961;28;89657;-31
2022/11/12 03:15:25;;;;;;;17.43;14.57;;;5.30;99.90;;;;;;4902579;28;89970;-33
2022/11/12 03:17:51;;;;;;;16.83;13.18;;;5.20;99.90;;;;;;4902379;28;90252;-30
2022/11/12 03:20:16;;;;;;;15.18;13.15;;;5.20;99.90;;;;;;4901899;28;89632;-29
2022/11/12 03:22:53;;;;;;;15.30;13.60;;;5.10;99.90;;;;;;4902027;28;88976;-31
2022/11/12 03:25:18;;;;;;;18.10;13.15;;;5.10;99.90;;;;;;4902270;28;90152;-30
2022/11/12 03:27:44;;;;;;;14.40;12.88;;;5.00;99.90;;;;;;4901612;28;90259;-30
2022/11/12 03:30:10;;;;;;;16.52;14.30;;;5.00;99.90;;;;;;4901889;28;89691;-30
2022/11/12 03:32:35;;;;;;;16.75;13.85;;;4.90;99.90;;;;;;4901931;28;90229;-29
2022/11/12 03:35:01;;;;;;;15.20;13.63;;;4.90;99.90;;;;;;4902225;28;88625;-32
2022/11/12 03:37:27;;;;;;;22.25;13.63;;;4.90;99.90;;;;;;4901882;28;90054;-31
2022/11/12 03:39:52;;;;;;;27.83;15.88;;;4.80;99.90;;;;;;4902036;28;90169;-33
2022/11/12 03:42:18;;;;;;;14.95;13.48;;;4.80;99.90;;;;;;4901429;28;89776;-32
2022/11/12 03:44:43;;;;;;;13.02;11.57;;;4.80;99.90;;;;;;4901516;28;89918;-32
2022/11/12 03:47:09;;;;;;;15.02;11.88;;;4.70;99.90;;;;;;4901798;28;90201;-30
2022/11/12 03:49:34;;;;;;;12.23;11.05;;;4.70;99.90;;;;;;4900847;28;90335;-30
2022/11/12 03:52:00;;;;;;;16.33;13.10;;;4.60;99.90;;;;;;4901498;28;90190;-30
2022/11/12 03:54:25;;;;;;;14.93;12.13;;;4.60;99.90;;;;;;4901268;28;88044;-32
2022/11/12 03:56:51;;;;;;;15.77;13.00;;;4.50;99.90;;;;;;4902009;28;90628;-30
2022/11/12 03:59:16;;;;;;;17.95;13.02;;;4.50;99.90;;;;;;4901641;28;90149;-30
2022/11/12 04:01:42;;;;;;;16.85;13.30;;;4.50;99.90;;;;;;4901377;28;89615;-29
2022/11/12 04:04:08;;;;;;;18.00;13.48;;;4.40;99.90;;;;;;4901428;28;88282;-30
2022/11/12 04:09:18;;;;;;;13.77;11.65;;;4.30;99.90;;;;;;4901655;28;89666;-33
2022/11/12 04:11:44;;;;;;;16.15;14.30;;;4.30;99.90;;;;;;4900935;28;88973;-30
2022/11/12 04:14:09;;;;;;;18.60;13.27;;;4.30;99.90;;;;;;4900857;28;90594;-32
2022/11/12 04:22:05;;;;;;;15.10;12.75;;;4.20;99.90;;;;;;4901793;28;89644;-30
2022/11/12 04:27:19;;;;;;;26.55;14.55;;;4.20;99.90;;;;;;4900909;28;90118;-30
2022/11/12 04:32:32;;;;;;;14.50;13.10;;;4.50;99.90;;;;;;4902144;28;89708;-30
2022/11/12 04:34:58;;;;;;;15.30;13.77;;;4.40;99.90;;;;;;4901518;28;88838;-30
2022/11/12 04:37:26;;;;;;;15.05;11.25;;;4.30;99.90;;;;;;4900781;28;90259;-33
2022/11/12 04:39:52;;;;;;;19.67;13.70;;;4.30;99.90;;;;;;4900706;28;90295;-32
2022/11/12 04:45:10;;;;;;;14.27;12.52;;;4.30;99.90;;;;;;4900909;28;88842;-32
2022/11/12 04:47:39;;;;;;;17.70;11.55;;;4.30;99.90;;;;;;4900933;28;90521;-31
2022/11/12 04:50:14;;;;;;;16.02;11.57;;;4.30;99.90;;;;;;4901113;28;89514;-32
2022/11/12 04:52:39;;;;;;;16.65;11.40;;;4.20;99.90;;;;;;4900265;28;90945;-31
2022/11/12 04:55:06;;;;;;;15.05;11.30;;;4.10;99.90;;;;;;4900848;28;89160;-32
2022/11/12 04:57:31;;;;;;;10.85;9.77;;;4.10;99.90;;;;;;4898860;28;89621;-30
2022/11/12 04:59:57;;;;;;;10.63;9.68;;;4.10;99.90;;;;;;4901696;28;87946;-31
2022/11/12 05:02:23;;;;;;;12.18;10.88;;;4.10;99.90;;;;;;4901300;28;89987;-31
2022/11/12 05:04:48;;;;;;;12.35;9.70;;;4.10;99.90;;;;;;4900321;28;90303;-33
2022/11/12 05:07:14;;;;;;;11.48;10.40;;;4.10;99.90;;;;;;4901053;28;89918;-33
2022/11/12 05:09:40;;;;;;;11.98;10.77;;;4.10;99.90;;;;;;4900039;28;89770;-32
2022/11/12 05:12:06;;;;;;;12.95;11.25;;;4.10;99.90;;;;;;4900568;28;89274;-32
2022/11/12 05:14:31;;;;;;;10.75;9.75;;;4.00;99.90;;;;;;4900513;28;88309;-31
2022/11/12 05:16:57;;;;;;;11.57;10.20;;;4.00;99.90;;;;;;4901444;28;89814;-31
2022/11/12 05:19:22;;;;;;;12.82;10.45;;;3.90;99.90;;;;;;4900354;28;91516;-31
2022/11/12 05:22:06;;;;;;;13.00;10.60;;;3.90;99.90;;;;;;4900578;28;91057;-31
2022/11/12 05:24:37;;;;;;;11.77;10.02;;;3.80;99.90;;;;;;4900797;28;89571;-29
2022/11/12 05:27:06;;;;;;;10.80;9.70;;;3.80;99.90;;;;;;4901084;28;90096;-30
2022/11/12 05:29:32;;;;;;;12.23;10.40;;;3.70;99.90;;;;;;4900927;28;91200;-30
2022/11/12 05:31:57;;;;;;;11.30;10.18;;;3.70;99.90;;;;;;4899646;28;90929;-31
2022/11/12 05:34:23;;;;;;;9.95;8.90;;;3.70;99.90;;;;;;4900882;28;88770;-31
2022/11/12 05:36:49;;;;;;;11.18;9.43;;;3.60;99.90;;;;;;4900854;28;91168;-30
2022/11/12 05:39:14;;;;;;;9.48;8.57;;;3.60;99.90;;;;;;4901308;28;90306;-30
2022/11/12 05:41:40;;;;;;;9.65;8.85;;;3.60;99.90;;;;;;4900639;28;89257;-30
2022/11/12 05:44:05;;;;;;;11.10;9.93;;;3.50;99.90;;;;;;4901143;28;89261;-31
2022/11/12 05:46:31;;;;;;;10.32;9.25;;;3.50;99.90;;;;;;4901002;28;90312;-31
2022/11/12 05:48:56;;;;;;;9.30;8.40;;;3.40;99.90;;;;;;4900965;28;89763;-29
2022/11/12 05:51:22;;;;;;;11.25;9.48;;;3.40;99.90;;;;;;4901343;28;89166;-31
2022/11/12 05:53:47;;;;;;;10.52;9.43;;;3.40;99.90;;;;;;4899693;28;89549;-31
2022/11/12 05:56:13;;;;;;;11.15;9.98;;;3.40;99.90;;;;;;4900930;28;90507;-32
2022/11/12 05:58:39;;;;;;;10.57;9.52;;;3.30;99.90;;;;;;4899868;28;90831;-30
2022/11/12 06:01:04;;;;;;;15.75;10.65;;;3.30;99.90;;;;;;4900696;28;90168;-30
2022/11/12 06:03:30;;;;;;;13.82;11.43;;;3.20;99.90;;;;;;4900267;28;87846;-31
2022/11/12 06:05:56;;;;;;;11.10;10.00;;;3.30;99.90;;;;;;4899609;28;90237;-30
2022/11/12 06:08:22;;;;;;;13.68;12.27;;;3.30;99.90;;;;;;4901442;28;90083;-29
2022/11/12 06:10:49;;;;;;;13.77;10.65;;;3.40;99.90;;;;;;4902985;28;90459;-30
2022/11/12 06:13:14;;;;;;;12.60;8.98;;;3.40;99.90;;;;;;4903321;28;89609;-33
2022/11/12 06:15:40;;;;;;;10.30;9.20;;;3.40;99.90;;;;;;4904259;28;90142;-29
2022/11/12 06:18:06;;;;;;;12.35;9.30;;;3.20;99.90;;;;;;4902794;28;90396;-31
2022/11/12 06:20:32;;;;;;;12.55;11.32;;;3.20;99.90;;;;;;4903712;28;89375;-31
2022/11/12 06:22:58;;;;;;;13.23;10.52;;;3.20;99.90;;;;;;4902717;28;87655;-34
2022/11/12 06:25:23;;;;;;;13.25;11.95;;;3.10;99.90;;;;;;4903249;28;90165;-33
2022/11/12 06:27:49;;;;;;;14.50;10.02;;;3.10;99.90;;;;;;4903420;28;89510;-31
2022/11/12 06:30:15;;;;;;;12.48;11.27;;;3.10;99.90;;;;;;4902108;28;89088;-31
2022/11/12 06:32:40;;;;;;;14.70;11.32;;;3.10;99.90;;;;;;4903466;28;90587;-31
2022/11/12 06:35:06;;;;;;;11.23;10.00;;;3.10;99.90;;;;;;4902383;28;90623;-32
2022/11/12 06:37:32;;;;;;;13.77;10.88;;;3.10;99.90;;;;;;4902963;28;88562;-33
2022/11/12 06:39:57;;;;;;;10.68;9.68;;;3.20;99.90;;;;;;4903048;28;90038;-33
2022/11/12 06:42:23;;;;;;;14.77;10.90;;;3.10;99.90;;;;;;4902856;28;89761;-33
2022/11/12 06:44:48;;;;;;;13.07;10.80;;;3.10;99.90;;;;;;4903367;28;89455;-31
2022/11/12 06:47:14;;;;;;;11.27;10.10;;;3.10;99.90;;;;;;4902016;28;89455;-29
2022/11/12 06:49:39;;;;;;;12.98;11.55;;;3.10;99.90;;;;;;4902553;28;89863;-30
2022/11/12 06:52:05;;;;;;;15.68;11.75;;;3.10;99.90;;;;;;4902644;28;89325;-32
2022/11/12 06:54:30;;;;;;;13.57;11.98;;;3.10;99.90;;;;;;4902729;28;90172;-29
2022/11/12 06:56:56;;;;;;;13.20;11.23;;;3.10;99.90;;;;;;4902475;28;89570;-31
2022/11/12 06:59:22;;;;;;;11.05;10.00;;;3.10;99.90;;;;;;4902357;28;89252;-30
2022/11/12 07:01:47;;;;;;;14.43;12.27;;;3.10;99.90;;;;;;4903193;28;88116;-29
2022/11/12 07:04:13;;;;;;;15.25;11.95;;;3.20;99.90;;;;;;4902357;28;91451;-31
2022/11/12 07:06:39;;;;;;;14.75;10.77;;;3.20;99.90;;;;;;4901555;28;90712;-30
2022/11/12 07:09:05;;;;;;;15.77;12.05;;;3.20;99.90;;;;;;4902428;28;90324;-32
2022/11/12 07:11:31;;;;;;;13.82;11.70;;;3.20;99.90;;;;;;4902143;28;89065;-32
2022/11/12 07:13:56;;;;;;;17.15;11.68;;;3.20;99.90;;;;;;4902303;28;92054;-30
2022/11/12 07:16:22;;;;;;;13.35;11.90;;;3.20;99.90;;;;;;4903855;28;89936;-31
2022/11/12 07:18:48;;;;;;;13.70;11.32;;;3.20;99.90;;;;;;4913117;28;89567;-32
2022/11/12 07:21:16;;;;;;;12.73;11.27;;;3.20;99.90;;;;;;4915292;28;89627;-30
2022/11/12 07:23:42;;;;;;;13.27;10.88;;;3.10;99.90;;;;;;4911559;28;91295;-29
2022/11/12 07:26:20;;;;;;;16.50;12.27;;;3.20;99.90;;;;;;4907362;28;89771;-30
2022/11/12 07:28:47;;;;;;;13.35;11.52;;;3.20;99.90;;;;;;4901359;28;89664;-32
2022/11/12 07:31:15;;;;;;;16.13;14.45;;;3.20;99.90;;;;;;4900924;28;90163;-32
2022/11/12 07:33:41;;;;;;;16.30;13.73;;;3.20;99.90;;;;;;4911792;28;90214;-31
2022/11/12 07:36:09;;;;;;;18.40;13.57;;;3.30;99.90;;;;;;4917849;28;90049;-31
2022/11/12 07:38:40;;;;;;;18.53;13.63;;;3.30;99.90;;;;;;4914071;28;89770;-29
2022/11/12 07:41:07;;;;;;;14.10;12.65;;;3.30;99.90;;;;;;4917498;28;89200;-32
2022/11/12 07:43:35;;;;;;;17.02;12.95;;;3.30;99.90;;;;;;4915618;28;91380;-29
2022/11/12 07:46:02;;;;;;;14.43;12.93;;;3.30;99.90;;;;;;4915258;28;89958;-30
2022/11/12 07:48:29;;;;;;;20.57;12.63;;;3.30;99.90;;;;;;4832574;28;89795;-30
2022/11/12 07:51:00;;;;;;;12.70;11.23;;;3.30;99.90;;;;;;4908542;28;89801;-31
2022/11/12 07:53:26;;;;;;;12.50;11.30;;;3.30;99.90;;;;;;4900582;28;89978;-33
2022/11/12 07:55:55;;;;;;;14.45;12.60;;;3.30;99.90;;;;;;4899419;28;90750;-31
2022/11/12 07:58:22;;;;;;;15.07;13.48;;;3.40;99.90;;;;;;4897905;28;90433;-31
2022/11/12 08:00:47;;;;;;;17.25;14.52;;;3.50;99.90;;;;;;4897848;28;89193;-31
2022/11/12 08:03:13;;;;;;;18.05;14.05;;;3.60;99.90;;;;;;4898558;28;89302;-32
2022/11/12 08:05:38;;;;;;;18.90;15.45;;;3.60;99.90;;;;;;4899544;28;89772;-31
2022/11/12 08:08:04;;;;;;;19.00;14.65;;;3.70;99.90;;;;;;4901042;28;89283;-31
2022/11/12 08:10:29;;;;;;;24.77;16.15;;;3.80;99.90;;;;;;4900616;28;89283;-31
2022/11/12 08:12:55;;;;;;;19.05;17.05;;;3.90;99.90;;;;;;4900681;28;90124;-30
2022/11/12 08:15:21;;;;;;;19.65;15.93;;;4.00;99.90;;;;;;4901958;28;89530;-31
2022/11/12 08:17:47;;;;;;;20.42;18.15;;;4.10;99.90;;;;;;4900224;28;89669;-32
2022/11/12 08:20:13;;;;;;;24.65;18.40;;;4.20;99.90;;;;;;4900119;28;90378;-32
2022/11/12 08:22:39;;;;;;;21.95;16.63;;;4.40;99.90;;;;;;4898924;28;90575;-31
2022/11/12 08:25:06;;;;;;;19.88;17.80;;;4.50;99.90;;;;;;4900202;28;89728;-32
2022/11/12 08:27:32;;;;;;;22.83;17.77;;;4.50;99.90;;;;;;4901116;28;89193;-31
2022/11/12 08:29:57;;;;;;;21.60;18.98;;;4.50;99.90;;;;;;4898463;28;89416;-32
2022/11/12 08:32:23;;;;;;;19.02;16.65;;;4.60;99.90;;;;;;4898550;28;90169;-30
2022/11/12 08:34:49;;;;;;;19.58;17.27;;;4.70;99.90;;;;;;4895642;28;89952;-32
2022/11/12 08:37:15;;;;;;;22.58;17.95;;;4.70;99.90;;;;;;4898453;28;89747;-31
2022/11/12 08:39:41;;;;;;;19.67;17.67;;;4.80;99.90;;;;;;4897128;28;89224;-30
2022/11/12 08:42:06;;;;;;;27.15;18.63;;;5.00;99.90;;;;;;4889506;28;90439;-30
2022/11/12 08:44:32;;;;;;;19.88;17.50;;;5.00;99.90;;;;;;4900234;28;90799;-30
2022/11/12 08:46:58;;;;;;;20.55;18.40;;;5.10;99.90;;;;;;4899569;28;91385;-29
2022/11/12 08:49:24;;;;;;;20.02;17.45;;;5.10;99.90;;;;;;4900600;28;89432;-35
2022/11/12 08:51:50;;;;;;;19.63;16.45;;;5.20;99.90;;;;;;4900008;28;89450;-32
2022/11/12 08:54:16;;;;;;;20.70;18.63;;;5.30;99.90;;;;;;4899066;28;89746;-31
2022/11/12 08:56:41;;;;;;;24.48;19.27;;;5.40;99.90;;;;;;4899967;28;88626;-32
2022/11/12 08:59:07;;;;;;;17.98;16.02;;;5.50;99.90;;;;;;4899359;28;89787;-29
2022/11/12 09:01:33;;;;;;;22.23;18.17;;;5.50;99.90;;;;;;4898906;28;90301;-31
2022/11/12 09:03:58;;;;;;;22.65;17.95;;;5.50;99.90;;;;;;4897660;28;89521;-30
2022/11/12 09:06:24;;;;;;;20.52;18.33;;;5.60;99.90;;;;;;4897358;28;88663;-30
2022/11/12 09:08:49;;;;;;;20.60;18.45;;;5.70;99.90;;;;;;4932175;23;90893;-31
2022/11/12 09:11:15;;;;;;;22.33;19.90;;;5.80;99.90;;;;;;4906294;28;90386;-31
2022/11/12 09:13:41;;;;;;;21.35;17.75;;;5.90;99.90;;;;;;4880298;28;89943;-31
2022/11/12 09:16:09;;;;;;;26.83;17.13;;;6.00;99.90;;;;;;4903142;28;89594;-31
2022/11/12 09:18:35;;;;;;;21.08;17.33;;;6.10;99.90;;;;;;4913761;28;88470;-31
2022/11/12 09:21:06;;;;;;;20.52;18.48;;;6.10;99.90;;;;;;4886353;28;89989;-32
2022/11/12 09:23:36;;;;;;;22.83;20.48;;;6.20;99.90;;;;;;4879506;28;89728;-33
2022/11/12 09:26:03;;;;;;;21.80;19.65;;;6.30;99.90;;;;;;4894190;28;90055;-32
2022/11/12 09:28:28;;;;;;;20.73;18.73;;;6.40;99.90;;;;;;4908386;28;87906;-32
2022/11/12 09:30:54;;;;;;;24.23;21.90;;;6.50;99.90;;;;;;4908902;28;90067;-31
2022/11/12 09:33:21;;;;;;;25.65;20.33;;;6.60;99.90;;;;;;4909539;28;90452;-30
2022/11/12 09:35:47;;;;;;;20.88;18.52;;;6.60;99.90;;;;;;4885349;28;90801;-31
2022/11/12 09:38:14;;;;;;;22.20;18.73;;;6.70;99.90;;;;;;4880616;28;90094;-30
2022/11/12 09:40:51;;;;;;;22.45;20.17;;;6.80;99.90;;;;;;4879640;28;90575;-30
2022/11/12 09:43:26;;;;;;;21.47;19.23;;;6.90;99.90;;;;;;4894544;28;89606;-30
2022/11/12 09:45:54;;;;;;;30.88;21.25;;;7.00;99.90;;;;;;4885616;28;89497;-31
2022/11/12 09:48:31;;;;;;;24.73;21.60;;;7.00;99.90;;;;;;4898699;28;89373;-31
2022/11/12 09:51:03;;;;;;;21.00;18.75;;;7.10;99.90;;;;;;4908104;28;90501;-33
2022/11/12 09:53:42;;;;;;;26.55;20.73;;;7.20;99.90;;;;;;4912764;28;89808;-31
2022/11/12 09:56:11;;;;;;;26.70;22.83;;;7.30;99.90;;;;;;4907381;28;90045;-32
2022/11/12 09:58:37;;;;;;;25.98;23.30;;;7.40;99.90;;;;;;4916360;28;90309;-32
2022/11/12 10:01:13;;;;;;;25.75;22.33;;;7.50;99.90;;;;;;4920413;28;90430;-30
2022/11/12 10:03:51;;;;;;;27.58;20.85;;;7.50;99.90;;;;;;4920810;28;89309;-29
2022/11/12 10:06:33;;;;;;;25.10;20.25;;;7.60;99.90;;;;;;4908107;28;90775;-32
2022/11/12 10:09:28;;;;;;;25.17;22.52;;;7.70;99.90;;;;;;4910085;28;89210;-33
2022/11/12 10:12:33;;;;;;;24.00;21.35;;;7.80;99.90;;;;;;4904485;28;90897;-32
2022/11/12 10:18:16;;;;;;;23.45;21.02;;;8.10;99.90;;;;;;4907469;28;89377;-30
2022/11/12 10:20:54;;;;;;;21.80;19.38;;;8.10;99.90;;;;;;4904523;28;89923;-32
2022/11/12 10:23:31;;;;;;;32.35;21.73;;;8.20;99.90;;;;;;4906484;28;89369;-29
2022/11/12 10:25:59;;;;;;;27.08;21.52;;;8.20;99.90;;;;;;4904495;28;91304;-30
2022/11/12 10:28:40;;;;;;;22.40;19.15;;;8.30;99.90;;;;;;4885121;28;92089;-31
2022/11/12 10:31:15;;;;;;;24.02;21.27;;;8.30;99.90;;;;;;4882194;28;89445;-33
2022/11/12 10:33:41;;;;;;;23.48;20.98;;;8.30;99.90;;;;;;4880526;28;90212;-32
2022/11/12 10:36:16;;;;;;;22.95;20.50;;;8.30;99.90;;;;;;4886599;28;89418;-30
2022/11/12 10:38:43;;;;;;;24.48;21.63;;;8.30;99.90;;;;;;4884423;28;89921;-30
2022/11/12 10:41:35;;;;;;;24.75;21.17;;;8.40;99.90;;;;;;4882536;28;89695;-30
2022/11/12 10:44:03;;;;;;;26.15;21.00;;;8.40;99.90;;;;;;4887931;28;90123;-32
2022/11/12 10:46:35;;;;;;;21.67;19.40;;;8.50;99.90;;;;;;4916061;28;89711;-30
2022/11/12 10:49:09;;;;;;;27.38;19.90;;;8.50;99.90;;;;;;4912275;28;88679;-31
2022/11/12 10:51:37;;;;;;;24.58;22.00;;;8.50;99.90;;;;;;4915419;28;90588;-33
2022/11/12 10:54:25;;;;;;;27.27;22.00;;;8.60;99.90;;;;;;4912008;28;90777;-32
2022/11/12 10:56:51;;;;;;;23.88;21.15;;;8.70;99.90;;;;;;4896556;28;90090;-34
2022/11/12 10:59:24;;;;;;;26.75;21.77;;;8.80;99.90;;;;;;4915516;28;90811;-33
2022/11/12 11:01:58;;;;;;;26.90;20.52;;;8.90;99.90;;;;;;4920532;28;90261;-33
2022/11/12 11:04:33;;;;;;;26.60;22.85;;;9.10;99.90;;;;;;4916928;28;92563;-35
2022/11/12 11:07:05;;;;;;;25.77;22.15;;;9.20;99.90;;;;;;4881854;28;90298;-33
2022/11/12 11:09:32;;;;;;;26.20;23.33;;;9.30;99.90;;;;;;4882307;28;89960;-32
2022/11/12 11:11:58;;;;;;;25.52;22.73;;;9.40;99.90;;;;;;4888394;28;88870;-33
2022/11/12 11:14:25;;;;;;;28.20;21.95;;;9.60;99.90;;;;;;4907386;28;92005;-33
2022/11/12 11:16:57;;;;;;;25.92;22.27;;;9.80;99.90;;;;;;4901622;28;90971;-32
2022/11/12 11:19:32;;;;;;;25.77;21.40;;;9.90;99.90;;;;;;4903643;28;90823;-33
2022/11/12 11:22:39;;;;;;;26.50;22.85;;;10.00;99.90;;;;;;4903084;28;89688;-33
2022/11/12 11:25:19;;;;;;;26.15;21.35;;;10.10;99.90;;;;;;4908074;28;90216;-32
2022/11/12 11:28:28;;;;;;;28.77;21.80;;;10.20;99.90;;;;;;4906065;28;89213;-31
2022/11/12 11:31:14;;;;;;;23.27;19.88;;;10.30;99.90;;;;;;4882134;28;90614;-33
2022/11/12 11:33:42;;;;;;;23.42;19.25;;;10.40;99.90;;;;;;4871564;28;89790;-32
2022/11/12 11:36:16;;;;;;;28.73;23.25;;;10.40;99.90;;;;;;4907693;28;91008;-32
2022/11/12 11:38:57;;;;;;;24.75;20.73;;;10.40;99.90;;;;;;4909603;28;89907;-32
2022/11/12 11:41:41;;;;;;;25.52;21.15;;;10.40;99.90;;;;;;4917848;28;89879;-31
2022/11/12 11:44:16;;;;;;;20.98;18.75;;;10.50;99.90;;;;;;4913358;28;90629;-33
2022/11/12 11:46:47;;;;;;;23.15;20.63;;;10.50;99.90;;;;;;4919218;28;90349;-32
2022/11/12 11:49:34;;;;;;;23.50;20.60;;;10.60;99.90;;;;;;4919204;28;89743;-36
2022/11/12 11:52:36;;;;;;;24.27;20.73;;;10.60;99.90;;;;;;4919144;28;90226;-31
2022/11/12 11:55:13;;;;;;;23.35;20.58;;;10.70;99.90;;;;;;4891758;28;88322;-34
2022/11/12 11:57:47;;;;;;;22.65;19.45;;;10.80;99.90;;;;;;4918411;28;89884;-34
2022/11/12 12:00:19;;;;;;;21.98;19.70;;;10.90;99.90;;;;;;4915204;28;89813;-33
2022/11/12 12:03:06;;;;;;;24.90;19.63;;;11.00;99.90;;;;;;4909156;28;90266;-33
2022/11/12 12:05:32;;;;;;;20.85;18.65;;;11.10;99.90;;;;;;4901217;28;88967;-31
2022/11/12 12:08:05;;;;;;;20.48;18.33;;;11.20;99.90;;;;;;4902745;28;90074;-34
2022/11/12 12:10:56;;;;;;;26.05;19.65;;;11.30;99.90;;;;;;4912836;28;91433;-32
2022/11/12 12:13:57;;;;;;;21.60;17.85;;;11.50;99.90;;;;;;4918685;28;90713;-33
2022/11/12 12:16:47;;;;;;;19.58;17.45;;;11.60;99.90;;;;;;4913131;28;89515;-33
2022/11/12 12:19:31;;;;;;;20.45;17.70;;;11.70;99.90;;;;;;4918092;28;90265;-33
2022/11/12 12:22:00;;;;;;;22.45;19.08;;;11.70;99.90;;;;;;4919182;28;89677;-33
2022/11/12 12:24:40;;;;;;;19.80;17.20;;;11.70;99.90;;;;;;4918642;28;89421;-32
2022/11/12 12:27:14;;;;;;;20.05;17.92;;;11.70;99.90;;;;;;4918973;28;88457;-33
2022/11/12 12:29:45;;;;;;;29.05;18.67;;;11.80;99.90;;;;;;4918351;28;90334;-31
2022/11/12 12:32:17;;;;;;;18.05;16.20;;;11.80;99.90;;;;;;4918070;28;89781;-33
2022/11/12 12:34:46;;;;;;;25.77;18.25;;;11.80;99.90;;;;;;4918425;28;89409;-34
2022/11/12 12:37:38;;;;;;;18.42;16.42;;;11.80;99.90;;;;;;4918386;28;88738;-33
2022/11/12 12:40:17;;;;;;;25.75;16.08;;;11.80;99.90;;;;;;4917963;28;90041;-31
2022/11/12 12:42:56;;;;;;;16.50;14.25;;;11.80;99.90;;;;;;4917420;28;88257;-31
2022/11/12 12:45:37;;;;;;;15.30;13.68;;;11.90;99.90;;;;;;4918146;28;90017;-32
2022/11/12 12:48:07;;;;;;;19.50;13.80;;;12.00;99.90;;;;;;4918223;28;88048;-31
2022/11/12 12:50:37;;;;;;;13.50;12.05;;;12.10;99.90;;;;;;4917904;28;90551;-31
2022/11/12 12:53:14;;;;;;;15.43;13.55;;;12.20;99.90;;;;;;4917366;28;90309;-33
2022/11/12 12:55:42;;;;;;;40.85;26.55;;;12.30;99.90;;;;;;4917814;28;89169;-33
2022/11/12 12:58:19;;;;;;;27.95;24.25;;;12.30;99.90;;;;;;4917743;28;89285;-32
2022/11/12 13:00:51;;;;;;;34.97;23.90;;;12.20;99.90;;;;;;4919370;28;90447;-32
2022/11/12 13:03:42;;;;;;;31.40;23.10;;;12.20;99.90;;;;;;4917875;28;90311;-31
2022/11/12 13:06:15;;;;;;;28.27;21.20;;;12.20;99.90;;;;;;4918152;28;90024;-32
2022/11/12 13:08:41;;;;;;;13.70;12.25;;;12.20;99.90;;;;;;4917563;28;89269;-34